Terminal Aerodrome Forecast
Issued by NWS Sterling, VA

Home | Current Version | Previous Version | Text Only | Print | Product List | Glossary On
Versions: 1 2 3 4 5 6 7 8 9 10 11 12 13 14 15 16 17 18
236
FTUS41 KLWX 010529
TAFMRB
TAF
KMRB 010529Z 0106/0206 16008KT 3SM -RA BR OVC010
     FM011600 15007KT P6SM OVC010
     FM011800 16006KT P6SM BKN020
     FM012100 15006KT P6SM -SHRA BKN015
     FM020300 VRB03KT 2SM -SHRA BR BKN020=

USA.gov is the U.S. government's official web portal to all federal, state and local government web resources and services.